Time;durP1;ratioP1;P1;durP2;ratioP2;P2;SDS_P1;SDS_P2;PMS_P1;PMS_P2;Temp;Humidity;BMP_temperature;BMP_pressure;BME280_temperature;BME280_humidity;BME280_pressure;Samples;Min_cycle;Max_cycle;Signal;HPM_P1;HPM_P2
2022/12/27 00:01:15;;;;;;;34.60;19.10;;;;;;;4.27;89.13;100844.39;123630;1099;104365;-78
2022/12/27 00:03:46;;;;;;;36.50;19.90;;;;;;;4.27;89.63;100843.46;123591;1099;104733;-77
2022/12/27 00:06:25;;;;;;;33.85;18.35;;;;;;;4.26;89.46;100839.09;123426;1099;104390;-78
2022/12/27 00:08:58;;;;;;;36.67;19.27;;;;;;;4.23;89.56;100847.56;123662;1099;104690;-78
2022/12/27 00:11:30;;;;;;;34.57;18.87;;;;;;;4.22;89.80;100847.46;123583;1099;104350;-77
2022/12/27 00:14:02;;;;;;;34.17;18.90;;;;;;;4.21;89.82;100840.48;123905;1099;104245;-78
2022/12/27 00:16:33;;;;;;;34.33;19.43;;;;;;;4.21;89.80;100851.77;123657;1099;104358;-77
2022/12/27 00:19:06;;;;;;;33.67;18.30;;;;;;;4.20;89.83;100841.28;123679;1099;104332;-77
2022/12/27 00:21:37;;;;;;;33.73;18.80;;;;;;;4.18;89.40;100829.89;123725;1099;104303;-77
2022/12/27 00:24:10;;;;;;;34.97;19.27;;;;;;;4.18;89.36;100848.08;123664;1098;104249;-77
2022/12/27 00:26:41;;;;;;;34.03;19.63;;;;;;;4.17;90.12;100841.07;123671;1099;104203;-77
2022/12/27 00:29:12;;;;;;;35.87;19.23;;;;;;;4.17;89.48;100828.97;123622;1099;104223;-77
2022/12/27 00:31:44;;;;;;;34.33;19.33;;;;;;;4.16;90.04;100822.00;123696;1099;104376;-78
2022/12/27 00:34:15;;;;;;;35.10;19.00;;;;;;;4.14;89.37;100813.19;123654;1098;104307;-78
2022/12/27 00:36:46;;;;;;;32.43;18.13;;;;;;;4.11;89.32;100807.78;123654;1099;104226;-77
2022/12/27 00:39:17;;;;;;;31.40;18.25;;;;;;;4.08;89.87;100813.70;123707;1099;104294;-77
2022/12/27 00:41:51;;;;;;;32.80;18.30;;;;;;;4.05;89.83;100813.49;123639;1099;104261;-77
2022/12/27 00:44:22;;;;;;;34.30;18.60;;;;;;;4.04;89.88;100810.79;123605;1099;104318;-77
2022/12/27 00:46:53;;;;;;;34.03;18.83;;;;;;;4.00;89.87;100795.80;123530;1099;104299;-77
2022/12/27 00:49:24;;;;;;;34.70;18.57;;;;;;;3.99;90.35;100797.50;123547;1099;104211;-77
2022/12/27 00:51:56;;;;;;;32.40;19.00;;;;;;;4.01;90.23;100795.89;123513;1099;104278;-77
2022/12/27 00:54:27;;;;;;;35.07;19.40;;;;;;;3.98;90.08;100795.69;123580;1099;104181;-77
2022/12/27 00:56:58;;;;;;;34.63;19.83;;;;;;;3.96;89.99;100795.59;123450;1099;104415;-77
2022/12/27 00:59:29;;;;;;;34.80;19.33;;;;;;;3.96;89.93;100803.37;123553;1098;104379;-77
2022/12/27 01:02:00;;;;;;;35.17;19.60;;;;;;;3.95;89.90;100805.88;123781;1099;104328;-77
2022/12/27 01:04:32;;;;;;;39.10;20.40;;;;;;;3.94;89.45;100796.27;123598;1099;104331;-77
2022/12/27 01:07:03;;;;;;;32.63;18.50;;;;;;;3.93;89.37;100800.58;123601;1099;104367;-77
2022/12/27 01:09:34;;;;;;;37.00;20.43;;;;;;;3.93;90.45;100792.78;123574;1099;104352;-77
2022/12/27 01:12:06;;;;;;;36.97;19.83;;;;;;;3.95;90.49;100801.56;123565;1099;104300;-77
2022/12/27 01:14:38;;;;;;;32.80;17.97;;;;;;;3.96;90.25;100790.39;123587;1098;104281;-77
2022/12/27 01:17:09;;;;;;;35.03;19.70;;;;;;;3.92;90.09;100788.38;123591;1099;104332;-77
2022/12/27 01:19:41;;;;;;;36.17;20.03;;;;;;;3.89;89.36;100789.87;123924;1099;104398;-77
2022/12/27 01:22:12;;;;;;;35.43;19.47;;;;;;;3.87;89.71;100784.59;123816;1099;104269;-77
2022/12/27 01:24:43;;;;;;;34.23;19.60;;;;;;;3.87;89.83;100766.41;123876;1099;104255;-77
2022/12/27 01:27:14;;;;;;;37.30;20.03;;;;;;;3.87;90.09;100765.52;123901;1099;104274;-77
2022/12/27 01:29:46;;;;;;;33.90;19.30;;;;;;;3.88;90.05;100767.30;124053;1098;104303;-77
2022/12/27 01:32:17;;;;;;;36.43;19.87;;;;;;;3.87;90.51;100763.81;123871;1099;104310;-77
2022/12/27 01:34:50;;;;;;;34.33;18.87;;;;;;;3.87;90.33;100768.13;123778;1099;104338;-77
2022/12/27 01:37:21;;;;;;;36.70;19.97;;;;;;;3.87;89.74;100778.50;123833;1099;104255;-77
2022/12/27 01:39:52;;;;;;;37.17;19.50;;;;;;;3.88;89.70;100757.84;123853;1098;104252;-77
2022/12/27 01:45:18;;;;;;;35.27;19.37;;;;;;;3.89;90.22;100776.90;123851;1099;104373;-77
2022/12/27 01:47:54;;;;;;;35.37;20.17;;;;;;;3.89;89.95;100777.79;123943;1099;104437;-77
2022/12/27 01:50:32;;;;;;;37.43;20.97;;;;;;;3.90;90.20;100782.20;123847;1099;104350;-77
2022/12/27 01:53:10;;;;;;;36.30;19.65;;;;;;;3.92;90.64;100770.20;123893;1099;104313;-77
2022/12/27 01:55:46;;;;;;;35.53;19.90;;;;;;;3.93;90.13;100772.02;123912;1099;104232;-77
2022/12/27 01:58:22;;;;;;;37.40;20.30;;;;;;;3.94;90.27;100753.05;123820;1099;104405;-78
2022/12/27 02:00:55;;;;;;;36.47;19.77;;;;;;;3.95;90.29;100749.64;123973;1099;104383;-77
2022/12/27 02:03:30;;;;;;;36.20;19.57;;;;;;;3.98;90.59;100742.88;123897;1099;104258;-78
2022/12/27 02:06:03;;;;;;;33.17;19.10;;;;;;;3.98;90.17;100738.56;123830;1099;104386;-77
2022/12/27 02:08:47;;;;;;;35.67;19.90;;;;;;;4.00;89.98;100738.67;123934;1099;104236;-78
2022/12/27 02:11:49;;;;;;;;;;;;;;;3.99;90.59;100739.45;123980;1099;104354;-77
2022/12/27 02:14:10;;;;;;;37.17;19.23;;;;;;;3.98;90.30;100743.76;123850;1099;104316;-77
2022/12/27 02:16:41;;;;;;;34.83;19.67;;;;;;;3.99;90.51;100744.64;124026;1099;104239;-78
2022/12/27 02:19:24;;;;;;;37.33;20.07;;;;;;;4.00;90.77;100741.27;123811;1099;104386;-77
2022/12/27 02:22:22;;;;;;;34.67;20.10;;;;;;;3.99;90.67;100739.45;123900;1099;104380;-78
2022/12/27 02:25:16;;;;;;;36.07;19.53;;;;;;;3.98;89.87;100728.17;123848;1099;104377;-77
2022/12/27 02:28:02;;;;;;;35.90;19.75;;;;;;;3.97;90.28;100728.97;123752;1098;104278;-77
2022/12/27 02:30:35;;;;;;;37.30;19.53;;;;;;;3.97;89.93;100728.97;123823;1099;104268;-77
2022/12/27 02:33:13;;;;;;;35.57;19.90;;;;;;;3.98;89.98;100727.29;123967;1099;104335;-78
2022/12/27 02:35:50;;;;;;;34.70;19.67;;;;;;;4.00;90.16;100728.28;123904;1099;104251;-77
2022/12/27 02:38:26;;;;;;;37.27;20.63;;;;;;;4.00;90.37;100721.37;123973;1099;104246;-77
2022/12/27 02:58:56;;;;;;;35.97;19.23;;;;;;;3.95;90.62;100713.28;123195;1102;104444;-76
2022/12/27 03:04:46;;;;;;;36.30;20.05;;;;;;;3.98;90.75;100714.31;123759;1099;104232;-77
2022/12/27 03:07:30;;;;;;;35.57;20.13;;;;;;;3.99;90.25;100709.22;123734;1099;104386;-77
2022/12/27 03:16:23;;;;;;;36.67;19.63;;;;;;;4.01;90.88;100698.92;123661;1099;104246;-77
2022/12/27 03:25:26;;;;;;;36.33;20.10;;;;;;;4.01;90.82;100696.33;123932;1099;104252;-77
2022/12/27 03:33:33;;;;;;;38.70;20.07;;;;;;;4.01;90.38;100688.55;123729;1099;104269;-77
2022/12/27 03:39:05;;;;;;;36.70;20.33;;;;;;;4.04;90.75;100680.95;123785;1099;104255;-77
2022/12/27 03:44:30;;;;;;;35.50;19.85;;;;;;;4.03;90.85;100653.17;123914;1099;104242;-77
2022/12/27 03:47:05;;;;;;;39.60;19.93;;;;;;;4.04;90.49;100658.47;123759;1099;104271;-77
2022/12/27 03:49:44;;;;;;;37.63;21.10;;;;;;;4.06;90.97;100664.65;123974;1099;104358;-77
2022/12/27 03:52:22;;;;;;;38.27;20.10;;;;;;;4.04;90.16;100647.20;123737;1099;104319;-77
2022/12/27 03:54:55;;;;;;;36.50;19.67;;;;;;;4.02;90.87;100647.09;123881;1099;104226;-77
2022/12/27 03:57:28;;;;;;;35.20;19.40;;;;;;;4.01;90.23;100647.88;123887;1099;104166;-77
2022/12/27 04:00:00;;;;;;;36.63;20.47;;;;;;;4.02;90.69;100644.50;123867;1099;104361;-78
2022/12/27 04:02:31;;;;;;;34.87;19.50;;;;;;;4.02;90.64;100633.19;123739;1099;104288;-77
2022/12/27 04:05:02;;;;;;;34.73;19.20;;;;;;;4.03;90.90;100629.80;123800;1099;104278;-77
2022/12/27 04:07:34;;;;;;;35.30;20.40;;;;;;;4.03;91.00;100635.00;123917;1099;104268;-77
2022/12/27 04:35:26;;;;;;;36.80;21.03;;;;;;;4.07;91.26;100649.98;123835;1099;104232;-76
2022/12/27 04:37:58;;;;;;;38.87;20.40;;;;;;;4.09;91.03;100648.38;123681;1099;104241;-78
2022/12/27 04:57:27;;;;;;;40.13;21.57;;;;;;;4.12;90.94;100632.98;123974;1099;104252;-77
2022/12/27 05:02:47;;;;;;;35.53;19.77;;;;;;;4.14;90.63;100639.17;124048;1099;104383;-77
2022/12/27 05:05:19;;;;;;;40.50;21.67;;;;;;;4.13;90.52;100632.20;123895;1099;104354;-77
2022/12/27 05:16:20;;;;;;;39.03;21.17;;;;;;;4.08;91.18;100628.39;123497;1099;104227;-76
2022/12/27 05:18:51;;;;;;;41.53;22.40;;;;;;;4.06;91.14;100623.09;124103;1099;104226;-78
2022/12/27 05:21:23;;;;;;;38.53;21.83;;;;;;;4.10;91.28;100624.22;124091;1099;104223;-78
2022/12/27 05:26:45;;;;;;;43.03;23.30;;;;;;;4.17;91.32;100621.19;124117;1099;104402;-79
2022/12/27 05:29:16;;;;;;;43.45;23.00;;;;;;;4.21;91.45;100625.78;123805;1099;104223;-79
2022/12/27 05:31:48;;;;;;;40.73;22.67;;;;;;;4.25;91.54;100612.16;123816;1096;104204;-79
2022/12/27 05:34:19;;;;;;;39.23;22.50;;;;;;;4.29;90.83;100613.28;124310;1099;104405;-79
2022/12/27 05:36:50;;;;;;;41.60;22.50;;;;;;;4.32;91.35;100616.95;124168;1099;104370;-79
2022/12/27 05:39:22;;;;;;;39.40;22.33;;;;;;;4.36;90.91;100619.74;124302;1099;105607;-78
2022/12/27 05:41:53;;;;;;;39.93;22.53;;;;;;;4.38;91.05;100618.12;124331;1099;104255;-78
2022/12/27 05:44:24;;;;;;;41.70;23.60;;;;;;;4.39;91.22;100622.53;124295;1099;104226;-78
2022/12/27 05:46:57;;;;;;;41.10;23.33;;;;;;;4.44;91.57;100616.83;124328;1099;104240;-79
2022/12/27 05:49:28;;;;;;;46.20;22.20;;;;;;;4.47;91.01;100610.91;124445;1099;104287;-79
2022/12/27 05:51:59;;;;;;;38.53;22.73;;;;;;;4.52;91.45;100616.39;124423;1099;104249;-80
2022/12/27 05:54:30;;;;;;;45.00;23.47;;;;;;;4.57;91.60;100617.59;124439;1099;104251;-79
2022/12/27 05:57:02;;;;;;;42.03;21.67;;;;;;;4.62;91.28;100617.05;124244;1099;104348;-76
2022/12/27 05:59:33;;;;;;;43.03;22.67;;;;;;;4.66;91.56;100618.16;123989;1099;104301;-77
2022/12/27 06:02:04;;;;;;;44.97;23.73;;;;;;;4.70;91.39;100614.92;124536;1099;104408;-78
2022/12/27 06:04:35;;;;;;;40.93;22.47;;;;;;;4.74;91.44;100610.83;123874;1099;104191;-80
2022/12/27 06:07:07;;;;;;;47.80;23.30;;;;;;;4.80;91.40;100613.77;124555;1098;104329;-78
2022/12/27 06:09:38;;;;;;;43.50;22.83;;;;;;;4.85;91.68;100612.37;124654;1099;104277;-77
2022/12/27 06:12:10;;;;;;;44.40;24.07;;;;;;;4.89;91.59;100614.33;124562;1099;104223;-78
2022/12/27 06:14:41;;;;;;;47.60;24.23;;;;;;;4.93;91.52;100618.03;124436;1099;104257;-77
2022/12/27 06:17:12;;;;;;;39.87;22.37;;;;;;;4.95;91.30;100606.89;124436;1099;104281;-78
2022/12/27 06:19:44;;;;;;;44.77;23.50;;;;;;;4.96;91.36;100613.02;124971;1099;104182;-78
2022/12/27 06:22:15;;;;;;;40.97;22.90;;;;;;;4.95;91.56;100613.81;125138;1099;104265;-79
2022/12/27 06:24:46;;;;;;;41.90;23.73;;;;;;;4.92;91.34;100617.11;125005;1099;104217;-78
2022/12/27 06:27:17;;;;;;;43.27;23.00;;;;;;;4.93;90.93;100605.91;125175;1099;102209;-78
2022/12/27 06:29:49;;;;;;;42.63;23.40;;;;;;;4.96;91.33;100607.81;124951;1099;104325;-78
2022/12/27 06:32:22;;;;;;;49.20;23.63;;;;;;;5.00;91.36;100615.89;124882;1099;102665;-77
2022/12/27 06:34:53;;;;;;;42.27;23.83;;;;;;;5.04;91.01;100612.64;124953;1099;104303;-78
2022/12/27 06:37:25;;;;;;;45.37;23.87;;;;;;;5.10;91.60;100612.12;125172;1099;104169;-78
2022/12/27 06:39:56;;;;;;;44.73;23.10;;;;;;;5.11;91.33;100613.94;124976;1099;102801;-78
2022/12/27 06:42:31;;;;;;;45.37;23.37;;;;;;;5.17;91.74;100611.70;125004;1099;104338;-80
2022/12/27 06:45:08;;;;;;;50.60;25.03;;;;;;;5.22;91.62;100607.65;124861;1099;104165;-78
2022/12/27 06:47:39;;;;;;;44.03;23.43;;;;;;;5.24;91.23;100599.94;125429;1099;104304;-77
2022/12/27 06:50:12;;;;;;;42.53;23.30;;;;;;;5.25;90.77;100606.02;125157;1099;102123;-77
2022/12/27 06:52:45;;;;;;;43.97;23.70;;;;;;;5.28;91.49;100614.02;125065;1099;104341;-80
2022/12/27 06:55:17;;;;;;;56.07;25.40;;;;;;;5.29;90.82;100613.22;124867;1099;104244;-77
2022/12/27 06:57:48;;;;;;;59.50;32.30;;;;;;;5.32;91.16;100608.19;124917;1099;104175;-78
2022/12/27 07:00:20;;;;;;;56.37;28.43;;;;;;;5.33;90.73;100610.88;124649;1099;104239;-79
2022/12/27 07:02:52;;;;;;;52.87;28.87;;;;;;;5.31;90.62;100612.48;124865;1099;104245;-78
2022/12/27 07:05:23;;;;;;;54.93;28.47;;;;;;;5.33;91.03;100613.48;124521;1099;104368;-78
2022/12/27 07:07:55;;;;;;;50.43;26.40;;;;;;;5.37;91.16;100618.04;125110;1099;102336;-78
2022/12/27 07:10:27;;;;;;;49.87;26.27;;;;;;;5.42;91.01;100612.22;125349;1099;103163;-77
2022/12/27 07:12:59;;;;;;;51.27;27.80;;;;;;;5.46;91.07;100609.00;125285;1099;104347;-77
2022/12/27 07:15:31;;;;;;;54.97;27.50;;;;;;;5.49;91.01;100611.78;124892;1099;102230;-75
2022/12/27 07:18:03;;;;;;;58.83;27.43;;;;;;;5.52;91.05;100605.03;125168;1098;102423;-76
2022/12/27 07:20:35;;;;;;;62.50;25.93;;;;;;;5.56;90.98;100603.48;125182;1099;104047;-75
2022/12/27 07:23:07;;;;;;;56.63;25.80;;;;;;;5.58;90.82;100600.18;125280;1099;104229;-75
2022/12/27 07:25:38;;;;;;;43.67;25.70;;;;;;;5.62;91.04;100606.45;125209;1099;104217;-75
2022/12/27 07:28:11;;;;;;;53.53;25.23;;;;;;;5.63;91.19;100616.06;125398;1099;102835;-75
2022/12/27 07:30:43;;;;;;;53.17;25.93;;;;;;;5.68;91.66;100624.14;125267;1099;104280;-76
2022/12/27 07:33:14;;;;;;;48.93;25.53;;;;;;;5.77;91.55;100622.06;125164;1099;104197;-76
2022/12/27 07:35:46;;;;;;;50.73;26.40;;;;;;;5.86;91.16;100616.45;125438;1099;104201;-75
2022/12/27 07:38:17;;;;;;;46.87;23.63;;;;;;;5.89;91.02;100611.42;125178;1099;104319;-76
2022/12/27 07:40:50;;;;;;;47.67;23.33;;;;;;;5.87;91.29;100606.13;124762;1099;104303;-77
2022/12/27 07:43:22;;;;;;;43.37;23.43;;;;;;;5.90;90.85;100606.30;124894;1099;104297;-78
2022/12/27 07:45:53;;;;;;;46.25;23.40;;;;;;;5.92;91.36;100609.91;125266;1099;104169;-77
2022/12/27 07:48:25;;;;;;;39.80;22.63;;;;;;;5.97;91.17;100604.98;125158;1099;104177;-77
2022/12/27 07:50:58;;;;;;;43.23;22.60;;;;;;;6.03;91.56;100605.33;124986;1099;104175;-78
2022/12/27 07:53:30;;;;;;;37.60;20.88;;;;;;;6.08;91.08;100606.47;125316;1099;102160;-76
2022/12/27 07:56:07;;;;;;;40.70;22.80;;;;;;;6.15;91.34;100609.42;125362;1099;102557;-76
2022/12/27 07:58:49;;;;;;;42.53;22.20;;;;;;;6.18;90.73;100599.16;125272;1099;104322;-78
2022/12/27 08:01:24;;;;;;;52.67;23.73;;;;;;;6.21;90.92;100594.13;124947;1099;104216;-76
2022/12/27 08:03:56;;;;;;;45.50;23.20;;;;;;;6.23;90.92;100597.70;125158;1099;102255;-76
2022/12/27 08:06:30;;;;;;;42.23;23.87;;;;;;;6.27;90.47;100597.06;125337;1099;104217;-78
2022/12/27 08:09:06;;;;;;;45.67;25.00;;;;;;;6.24;90.66;100591.69;125560;1098;103721;-76
2022/12/27 08:11:39;;;;;;;47.03;24.80;;;;;;;6.19;90.63;100603.58;125595;1099;105634;-76
2022/12/27 08:14:11;;;;;;;49.67;25.27;;;;;;;6.19;90.94;100599.25;125530;1099;104172;-75
2022/12/27 08:16:43;;;;;;;46.07;24.57;;;;;;;6.21;90.83;100615.86;125443;1099;101975;-77
2022/12/27 08:19:15;;;;;;;47.13;25.40;;;;;;;6.21;90.93;100605.43;125446;1099;104201;-75
2022/12/27 08:21:46;;;;;;;59.17;32.93;;;;;;;6.25;91.06;100598.70;125393;1099;104230;-78
2022/12/27 08:24:19;;;;;;;64.53;34.47;;;;;;;6.26;90.94;100590.97;125302;1099;102092;-75
2022/12/27 08:26:53;;;;;;;67.97;38.83;;;;;;;6.24;90.92;100582.14;125311;1099;102731;-76
2022/12/27 08:29:26;;;;;;;65.13;40.67;;;;;;;6.27;90.67;100581.43;125366;1098;104209;-77
2022/12/27 08:31:59;;;;;;;74.90;41.50;;;;;;;6.30;90.69;100585.09;125463;1099;104334;-78
2022/12/27 08:34:38;;;;;;;67.93;41.77;;;;;;;6.34;91.12;100583.53;125036;1099;102775;-76
2022/12/27 08:37:09;;;;;;;68.00;41.00;;;;;;;6.37;90.77;100572.39;125197;1099;104169;-76
2022/12/27 08:39:41;;;;;;;63.70;36.80;;;;;;;6.37;90.68;100568.05;125338;1098;103440;-76
2022/12/27 08:42:14;;;;;;;65.40;36.87;;;;;;;6.43;90.79;100577.93;125211;1099;104169;-77
2022/12/27 08:44:49;;;;;;;62.30;35.90;;;;;;;6.47;90.98;100583.39;124984;1099;104210;-77
2022/12/27 08:47:22;;;;;;;63.43;36.67;;;;;;;6.51;90.42;100594.87;125482;1099;103215;-78
2022/12/27 08:49:56;;;;;;;70.97;39.83;;;;;;;6.40;90.31;100601.22;124981;1099;104513;-75
2022/12/27 08:52:28;;;;;;;79.50;45.17;;;;;;;6.28;89.65;100609.29;125282;1098;104251;-76
2022/12/27 08:55:00;;;;;;;74.90;42.90;;;;;;;6.22;89.97;100603.74;125195;1099;104179;-76
2022/12/27 08:57:32;;;;;;;67.13;38.60;;;;;;;6.25;90.30;100589.16;125171;1099;104169;-75
2022/12/27 09:00:05;;;;;;;64.47;38.63;;;;;;;6.30;90.08;100592.02;125324;1099;102259;-76
2022/12/27 09:02:58;;;;;;;69.00;38.97;;;;;;;6.29;90.15;100574.58;125031;1099;103477;-77
2022/12/27 09:05:36;;;;;;;70.83;40.03;;;;;;;6.37;90.28;100575.87;125551;1099;104172;-77
2022/12/27 09:08:11;;;;;;;70.17;38.50;;;;;;;6.38;90.51;100574.19;125568;1099;104361;-77
2022/12/27 09:10:44;;;;;;;71.33;40.60;;;;;;;6.44;90.11;100574.52;125406;1099;104629;-77
2022/12/27 09:13:15;;;;;;;76.30;44.37;;;;;;;6.51;90.00;100570.52;125176;1099;102692;-77
2022/12/27 09:15:47;;;;;;;85.43;47.23;;;;;;;6.53;90.10;100572.41;124710;1099;104425;-77
2022/12/27 09:18:18;;;;;;;80.50;48.20;;;;;;;6.56;89.79;100567.35;125229;1099;102487;-75
2022/12/27 09:20:49;;;;;;;82.83;46.27;;;;;;;6.62;90.13;100556.33;124652;1099;104160;-75
2022/12/27 09:23:26;;;;;;;80.05;46.85;;;;;;;6.67;90.35;100554.88;124943;1099;102162;-76
2022/12/27 09:26:10;;;;;;;97.30;58.17;;;;;;;6.69;90.19;100553.23;125333;1099;102566;-75
2022/12/27 09:28:43;;;;;;;100.10;56.53;;;;;;;6.68;89.71;100554.05;125529;1099;104166;-76
2022/12/27 09:31:17;;;;;;;93.10;55.57;;;;;;;6.65;89.17;100570.45;125721;1099;104178;-77
2022/12/27 09:33:49;;;;;;;83.87;50.50;;;;;;;6.64;89.56;100559.94;124781;1099;104274;-76
2022/12/27 09:36:22;;;;;;;78.87;46.07;;;;;;;6.59;89.50;100557.09;125384;1099;104226;-75
2022/12/27 09:38:56;;;;;;;77.03;44.67;;;;;;;6.59;89.49;100550.95;125356;1099;103126;-75
2022/12/27 09:41:40;;;;;;;74.73;43.37;;;;;;;6.58;88.71;100552.67;126131;1099;101570;-76
2022/12/27 09:44:18;;;;;;;75.53;43.63;;;;;;;6.53;88.76;100551.55;126719;1096;102633;-76
2022/12/27 09:47:00;;;;;;;79.30;43.17;;;;;;;6.47;88.22;100546.89;126793;1098;102860;-76
2022/12/27 09:49:37;;;;;;;69.30;42.40;;;;;;;6.39;88.66;100561.23;126509;1099;101818;-76
2022/12/27 09:52:17;;;;;;;73.80;42.07;;;;;;;6.33;88.40;100554.78;124992;1099;104213;-76
2022/12/27 09:55:00;;;;;;;64.30;36.40;;;;;;;6.28;88.48;100558.06;124795;1099;104205;-77
2022/12/27 09:57:38;;;;;;;59.57;33.83;;;;;;;6.27;88.29;100547.55;125400;1099;103424;-76
2022/12/27 10:00:19;;;;;;;63.37;35.23;;;;;;;6.31;88.85;100549.52;124866;1099;103158;-76
2022/12/27 10:02:52;;;;;;;55.00;32.60;;;;;;;6.37;88.73;100555.03;124941;1099;104166;-76
2022/12/27 10:05:29;;;;;;;58.67;32.73;;;;;;;6.36;89.02;100545.44;125419;1099;104198;-76
2022/12/27 10:08:14;;;;;;;53.73;31.17;;;;;;;6.44;89.15;100540.63;125273;1099;102174;-75
2022/12/27 10:10:53;;;;;;;51.47;31.00;;;;;;;6.47;88.54;100541.68;124683;1099;104331;-75
2022/12/27 10:13:46;;;;;;;56.83;31.77;;;;;;;6.47;88.66;100538.19;124936;1099;102118;-77
2022/12/27 10:16:28;;;;;;;50.40;28.90;;;;;;;6.54;88.78;100529.85;124798;1102;104248;-76
2022/12/27 10:22:08;;;;;;;48.50;28.60;;;;;;;6.74;89.38;100530.89;124792;1102;104136;-77
2022/12/27 10:24:44;;;;;;;51.43;30.00;;;;;;;6.84;89.70;100527.06;124493;1105;104230;-76
2022/12/27 10:27:19;;;;;;;50.90;27.53;;;;;;;6.91;89.21;100528.27;124527;1102;102353;-78
2022/12/27 10:29:54;;;;;;;47.47;27.27;;;;;;;6.95;89.16;100530.19;124424;1105;104326;-77
2022/12/27 10:32:27;;;;;;;44.57;26.57;;;;;;;6.95;89.40;100530.19;124480;1103;102514;-77
2022/12/27 10:35:03;;;;;;;54.80;29.43;;;;;;;6.96;89.61;100529.38;124752;1102;104059;-77
2022/12/27 10:37:35;;;;;;;51.03;30.40;;;;;;;6.94;89.18;100521.48;124765;1099;104270;-75
2022/12/27 10:40:17;;;;;;;53.57;28.27;;;;;;;6.93;89.29;100521.40;124756;1099;102127;-77
2022/12/27 10:43:00;;;;;;;53.77;29.27;;;;;;;6.94;89.49;100520.59;124713;1099;102460;-75
2022/12/27 10:45:35;;;;;;;56.43;31.43;;;;;;;6.95;89.79;100514.53;124736;1099;104242;-77
2022/12/27 10:48:18;;;;;;;51.70;31.10;;;;;;;6.96;89.43;100496.35;124807;1102;104163;-76
2022/12/27 10:51:05;;;;;;;57.97;33.43;;;;;;;6.97;89.44;100495.55;124520;1099;104214;-77
2022/12/27 10:53:39;;;;;;;57.47;33.03;;;;;;;6.93;89.59;100504.02;124541;1102;103215;-76
2022/12/27 10:56:26;;;;;;;61.27;31.83;;;;;;;6.91;89.81;100508.28;124501;1099;104178;-74
2022/12/27 10:59:10;;;;;;;59.70;34.43;;;;;;;6.81;89.13;100517.36;124682;1099;104374;-74
2022/12/27 11:01:44;;;;;;;57.17;33.43;;;;;;;6.68;89.02;100501.89;124839;1099;102652;-74
2022/12/27 11:04:19;;;;;;;59.27;34.77;;;;;;;6.66;89.93;100493.98;124718;1099;103918;-76
2022/12/27 11:07:11;;;;;;;58.37;33.93;;;;;;;6.71;89.77;100491.61;124774;1102;102092;-74
2022/12/27 11:09:43;;;;;;;57.53;33.30;;;;;;;6.78;90.05;100474.59;124612;1099;104233;-74
2022/12/27 11:12:19;;;;;;;60.43;34.57;;;;;;;6.82;89.96;100461.78;124732;1099;104335;-78
2022/12/27 11:14:59;;;;;;;58.93;34.40;;;;;;;6.89;90.02;100467.27;124884;1099;103484;-75
2022/12/27 11:17:38;;;;;;;61.83;35.17;;;;;;;6.95;90.30;100470.19;124990;1099;104251;-75
2022/12/27 11:20:21;;;;;;;58.77;33.10;;;;;;;7.00;90.25;100460.90;126111;1099;102512;-76
2022/12/27 11:22:56;;;;;;;63.13;36.07;;;;;;;7.05;90.39;100469.84;126120;1099;102230;-75
2022/12/27 11:25:29;;;;;;;61.37;36.13;;;;;;;7.14;90.64;100462.46;126093;1099;101789;-75
2022/12/27 11:28:04;;;;;;;58.33;32.67;;;;;;;7.18;89.95;100477.46;126056;1099;101423;-75
2022/12/27 11:30:40;;;;;;;59.20;33.77;;;;;;;7.16;89.81;100476.47;126002;1099;101881;-73
2022/12/27 11:33:24;;;;;;;64.00;36.97;;;;;;;7.21;90.19;100487.13;125963;1101;102352;-75
2022/12/27 11:35:59;;;;;;;57.55;34.15;;;;;;;7.28;90.23;100485.73;126026;1099;101951;-76
2022/12/27 11:38:33;;;;;;;63.20;36.83;;;;;;;7.38;90.10;100491.45;126034;1099;102604;-75
2022/12/27 11:41:09;;;;;;;64.20;36.13;;;;;;;7.45;90.26;100479.61;126058;1099;102534;-75
2022/12/27 11:43:48;;;;;;;58.65;34.75;;;;;;;7.52;90.73;100480.78;126055;1099;102645;-76
2022/12/27 11:46:33;;;;;;;61.83;36.80;;;;;;;7.58;90.04;100464.53;126283;1099;101757;-75
2022/12/27 11:49:13;;;;;;;55.07;34.63;;;;;;;7.64;90.08;100454.37;126184;1098;103985;-74
2022/12/27 11:52:14;;;;;;;61.83;36.63;;;;;;;7.61;90.14;100459.45;126222;1099;101553;-73
2022/12/27 11:55:18;;;;;;;60.87;36.27;;;;;;;7.61;89.88;100469.89;126149;1099;102668;-75
2022/12/27 11:58:22;;;;;;;67.20;37.37;;;;;;;7.63;90.59;100474.34;125952;1099;102177;-75
2022/12/27 12:01:01;;;;;;;60.97;36.87;;;;;;;7.57;89.77;100474.05;126089;1098;101843;-76
2022/12/27 12:04:00;;;;;;;64.77;37.47;;;;;;;7.55;90.10;100471.37;126272;1099;102684;-75
2022/12/27 12:06:46;;;;;;;62.33;37.43;;;;;;;7.60;89.95;100478.54;126254;1098;102937;-76
2022/12/27 12:09:53;;;;;;;61.20;38.33;;;;;;;7.65;89.80;100471.81;126313;1099;102223;-74
2022/12/27 12:12:59;;;;;;;61.37;38.23;;;;;;;7.68;90.16;100478.09;125914;1099;102540;-73
2022/12/27 12:15:58;;;;;;;65.27;39.13;;;;;;;7.65;89.98;100479.64;126081;1099;101918;-73
2022/12/27 12:19:00;;;;;;;62.73;38.53;;;;;;;7.58;90.12;100480.20;126057;1098;102781;-75
2022/12/27 12:21:40;;;;;;;70.07;40.07;;;;;;;7.59;90.25;100484.58;126110;1099;102116;-77
2022/12/27 12:24:56;;;;;;;63.77;39.13;;;;;;;7.63;90.20;100481.30;126009;1099;102914;-74
2022/12/27 12:27:43;;;;;;;78.63;46.17;;;;;;;7.58;89.86;100486.30;125709;1102;102944;-74
2022/12/27 12:30:50;;;;;;;84.47;52.60;;;;;;;7.52;89.86;100492.11;125686;1102;102768;-73
2022/12/27 12:34:01;;;;;;;88.77;52.10;;;;;;;7.46;90.22;100486.59;125951;1099;102399;-75
2022/12/27 12:36:57;;;;;;;98.33;56.30;;;;;;;7.45;90.19;100479.61;125952;1099;107389;-76
2022/12/27 12:39:41;;;;;;;100.63;58.20;;;;;;;7.52;89.88;100479.06;126028;1099;102024;-74
2022/12/27 12:42:20;;;;;;;91.82;51.70;;;;;;;7.54;90.27;100500.94;126063;1099;102228;-76
2022/12/27 12:45:06;;;;;;;89.47;50.10;;;;;;;7.52;90.20;100510.39;125938;1098;102459;-74
2022/12/27 12:48:04;;;;;;;79.50;48.80;;;;;;;7.48;89.87;100505.87;125939;1099;103046;-75
2022/12/27 12:51:00;;;;;;;68.27;41.60;;;;;;;7.42;89.99;100521.23;125970;1101;102507;-74
2022/12/27 12:53:51;;;;;;;67.80;40.97;;;;;;;7.35;89.51;100533.10;125988;1099;102266;-78
2022/12/27 12:56:55;;;;;;;61.20;38.17;;;;;;;7.33;89.91;100536.45;125986;1099;101913;-77
2022/12/27 12:59:51;;;;;;;65.53;37.73;;;;;;;7.30;89.41;100537.18;125837;1102;101861;-77
2022/12/27 13:03:00;;;;;;;68.00;35.60;;;;;;;7.28;89.71;100543.16;125986;1099;102108;-75
2022/12/27 13:05:40;;;;;;;64.57;33.40;;;;;;;7.20;89.71;100541.05;125759;1102;103383;-77
2022/12/27 13:08:22;;;;;;;63.63;34.50;;;;;;;7.19;89.77;100517.49;126178;1099;102872;-77
2022/12/27 13:11:30;;;;;;;56.23;31.93;;;;;;;7.20;89.62;100495.80;126090;1099;102961;-74
2022/12/27 13:14:43;;;;;;;57.97;31.57;;;;;;;7.16;89.93;100466.03;126204;1099;102104;-75
2022/12/27 13:17:19;;;;;;;52.27;30.27;;;;;;;7.14;90.21;100480.73;125835;1102;102351;-77
2022/12/27 13:20:05;;;;;;;53.27;30.30;;;;;;;7.17;90.42;100488.70;125993;1099;102750;-77
2022/12/27 13:22:55;;;;;;;50.10;28.70;;;;;;;7.17;90.00;100487.83;126232;1099;102623;-74
2022/12/27 13:25:37;;;;;;;47.50;27.30;;;;;;;7.18;90.48;100484.37;126453;1100;102693;-73
2022/12/27 13:28:28;;;;;;;51.47;29.87;;;;;;;7.20;90.64;100491.47;126389;1099;102207;-78
2022/12/27 13:31:04;;;;;;;53.53;30.70;;;;;;;7.25;90.52;100493.42;126262;1098;102964;-76
2022/12/27 13:33:46;;;;;;;51.07;30.10;;;;;;;7.29;90.48;100492.73;125984;1099;102247;-76